Time;durP1;ratioP1;P1;durP2;ratioP2;P2;SDS_P1;SDS_P2;PMS_P1;PMS_P2;Temp;Humidity;BMP_temperature;BMP_pressure;BME280_temperature;BME280_humidity;BME280_pressure;Samples;Min_cycle;Max_cycle;Signal;HPM_P1;HPM_P2
2021/11/26 06:06:36;;;;;;;70.75;19.42;;;;;;;1.22;76.82;96859.88;4819944;27;20141;-49
2021/11/26 06:09:02;;;;;;;61.10;20.08;;;;;;;1.27;76.74;96849.28;4835778;29;20042;-47
2021/11/26 06:11:27;;;;;;;66.97;21.65;;;;;;;1.31;76.06;96853.41;4841653;29;20034;-47
2021/11/26 06:13:53;;;;;;;73.68;20.90;;;;;;;1.06;77.27;96857.25;4842314;29;20030;-48
2021/11/26 06:16:18;;;;;;;76.38;22.92;;;;;;;0.87;78.06;96853.97;4840338;29;20033;-48
2021/11/26 06:18:43;;;;;;;83.35;24.25;;;;;;;0.84;78.35;96856.69;4857230;29;20081;-48
2021/11/26 06:21:09;;;;;;;95.70;22.00;;;;;;;0.84;78.36;96867.03;4843212;29;20500;-48
2021/11/26 06:23:34;;;;;;;72.68;20.10;;;;;;;0.93;77.91;96858.81;4852157;29;20033;-47
2021/11/26 06:25:59;;;;;;;86.30;26.05;;;;;;;0.78;79.05;96859.59;4860451;29;20029;-47
2021/11/26 06:28:25;;;;;;;84.18;23.92;;;;;;;0.71;79.38;96859.88;4858749;29;20029;-46
2021/11/26 06:30:50;;;;;;;85.18;24.17;;;;;;;0.89;78.68;96857.28;4842174;29;20034;-46
2021/11/26 06:33:16;;;;;;;80.00;23.95;;;;;;;1.06;77.88;96849.50;4841950;29;20561;-46
2021/11/26 06:35:41;;;;;;;85.28;23.13;;;;;;;0.83;79.17;96852.44;4842172;29;20034;-47
2021/11/26 06:38:07;;;;;;;91.28;23.20;;;;;;;1.08;78.07;96846.84;4853299;29;20393;-47
2021/11/26 06:40:32;;;;;;;85.25;23.70;;;;;;;1.30;77.01;96837.03;4856639;29;20052;-50
2021/11/26 06:42:57;;;;;;;76.13;23.42;;;;;;;1.33;76.83;96830.88;4841779;29;20045;-49
2021/11/26 06:45:23;;;;;;;89.47;26.00;;;;;;;1.34;76.71;96838.56;4851307;29;20040;-51
2021/11/26 06:47:48;;;;;;;90.07;24.42;;;;;;;1.36;76.63;96820.38;4860592;29;20442;-51
2021/11/26 06:50:14;;;;;;;89.35;23.35;;;;;;;1.35;76.21;96821.31;4860406;29;20430;-48
2021/11/26 06:52:40;;;;;;;72.07;21.90;;;;;;;1.30;77.07;96823.28;4844642;29;20025;-53
2021/11/26 06:55:07;;;;;;;77.95;22.90;;;;;;;1.39;76.80;96822.81;4842429;29;20533;-50
2021/11/26 06:57:33;;;;;;;93.35;24.50;;;;;;;1.48;75.92;96824.06;4841761;29;20505;-51
2021/11/26 06:59:58;;;;;;;88.10;24.17;;;;;;;1.56;74.97;96807.22;4841768;29;20030;-49
2021/11/26 07:02:23;;;;;;;75.68;23.17;;;;;;;1.18;76.67;96814.47;4841476;29;20030;-49
2021/11/26 07:04:49;;;;;;;85.38;24.45;;;;;;;1.09;77.38;96818.34;4841489;29;20048;-47
2021/11/26 07:07:14;;;;;;;87.65;22.98;;;;;;;1.02;78.06;96822.16;4842057;29;20034;-55
2021/11/26 07:09:40;;;;;;;69.95;20.92;;;;;;;1.01;77.52;96815.34;4840815;29;20216;-51
2021/11/26 07:12:09;;;;;;;87.47;23.52;;;;;;;0.80;78.79;96817.31;4841473;29;20113;-51
2021/11/26 07:14:37;;;;;;;82.53;25.33;;;;;;;0.74;78.56;96812.44;4839697;29;20033;-53
2021/11/26 07:17:02;;;;;;;90.63;25.52;;;;;;;0.87;78.98;96818.66;4841582;29;20509;-51
2021/11/26 07:19:27;;;;;;;91.25;25.58;;;;;;;0.87;78.61;96816.06;4840243;29;20061;-52
2021/11/26 07:21:53;;;;;;;82.68;24.88;;;;;;;0.84;79.21;96817.97;4841214;29;20091;-50
2021/11/26 07:24:18;;;;;;;86.68;24.40;;;;;;;0.84;79.21;96808.47;4840218;29;20033;-50
2021/11/26 07:26:44;;;;;;;83.93;23.33;;;;;;;1.06;78.83;96802.19;4841244;29;20038;-49
2021/11/26 07:29:09;;;;;;;81.00;23.63;;;;;;;1.18;78.30;96801.56;4841319;29;20030;-51
2021/11/26 07:31:34;;;;;;;75.97;22.45;;;;;;;1.14;78.27;96800.88;4841167;29;20026;-52
2021/11/26 07:34:00;;;;;;;95.40;26.70;;;;;;;1.20;77.91;96799.69;4840683;29;20026;-51
2021/11/26 07:36:28;;;;;;;84.53;24.60;;;;;;;1.02;78.92;96791.19;4841304;29;20429;-49
2021/11/26 07:38:53;;;;;;;86.85;26.58;;;;;;;0.99;78.89;96793.09;4841481;29;20029;-52
2021/11/26 07:41:19;;;;;;;82.10;26.20;;;;;;;0.88;79.32;96793.66;4841169;29;20093;-53
2021/11/26 07:43:44;;;;;;;83.47;24.88;;;;;;;1.02;79.38;96786.03;4840643;29;20033;-50
2021/11/26 07:46:09;;;;;;;86.82;26.33;;;;;;;0.99;79.19;96780.19;4840870;29;20026;-53
2021/11/26 07:48:35;;;;;;;88.85;25.58;;;;;;;0.86;79.86;96790.31;4840926;29;20030;-54
2021/11/26 07:51:00;;;;;;;94.10;26.80;;;;;;;0.84;79.78;96766.34;4841128;29;20064;-49
2021/11/26 07:53:25;;;;;;;90.05;25.30;;;;;;;0.93;79.73;96776.19;4840896;29;20026;-49
2021/11/26 07:55:51;;;;;;;79.57;25.88;;;;;;;0.77;81.32;96775.31;4840443;29;20030;-54
2021/11/26 07:58:16;;;;;;;84.13;24.98;;;;;;;1.06;80.21;96769.44;4840978;29;20041;-54
2021/11/26 08:00:42;;;;;;;94.82;25.60;;;;;;;0.93;80.54;96771.88;4839944;29;20065;-52
2021/11/26 08:03:07;;;;;;;90.70;25.05;;;;;;;1.02;80.58;96765.38;4841013;29;20026;-53
2021/11/26 08:05:33;;;;;;;84.63;25.25;;;;;;;1.13;80.80;96755.28;4840756;29;20041;-52
2021/11/26 08:07:58;;;;;;;89.68;26.10;;;;;;;0.90;81.35;96763.44;4839418;29;20054;-53
2021/11/26 08:10:24;;;;;;;97.97;27.63;;;;;;;0.68;82.47;96761.97;4841032;29;20033;-53
2021/11/26 08:12:50;;;;;;;98.43;27.73;;;;;;;0.62;82.37;96757.16;4840949;29;20029;-53
2021/11/26 08:15:16;;;;;;;93.07;27.58;;;;;;;0.55;83.40;96760.09;4840665;29;20040;-53
2021/11/26 08:17:41;;;;;;;105.70;27.30;;;;;;;0.62;83.46;96757.16;4838946;29;20038;-50
2021/11/26 08:20:07;;;;;;;97.72;29.20;;;;;;;0.62;84.17;96762.31;4842356;29;20082;-52
2021/11/26 08:22:33;;;;;;;111.78;29.40;;;;;;;0.63;83.43;96761.38;4844398;29;20046;-52
2021/11/26 08:24:58;;;;;;;95.03;26.63;;;;;;;0.44;84.66;96753.75;4844465;29;20125;-51
2021/11/26 08:27:23;;;;;;;111.50;27.45;;;;;;;0.47;84.62;96748.44;4843635;29;20390;-50
2021/11/26 08:29:49;;;;;;;116.15;28.02;;;;;;;0.35;85.47;96748.25;4844483;29;20036;-51
2021/11/26 08:32:14;;;;;;;104.43;26.80;;;;;;;0.41;84.81;96737.59;4844359;29;20367;-53
2021/11/26 08:34:40;;;;;;;98.45;26.33;;;;;;;0.54;84.68;96737.81;4843433;29;20063;-52
2021/11/26 08:37:05;;;;;;;100.88;27.60;;;;;;;0.66;84.35;96738.00;4843982;29;20030;-54
2021/11/26 08:39:30;;;;;;;95.00;25.70;;;;;;;0.70;84.38;96734.34;4844459;29;20025;-54
2021/11/26 08:41:56;;;;;;;102.55;25.98;;;;;;;0.64;84.46;96734.66;4844168;29;20040;-55
2021/11/26 08:44:21;;;;;;;94.63;25.45;;;;;;;0.64;84.31;96724.34;4843647;29;20037;-55
2021/11/26 08:46:47;;;;;;;111.28;27.40;;;;;;;0.82;83.74;96732.03;4844150;29;20022;-54
2021/11/26 08:49:13;;;;;;;98.35;26.77;;;;;;;0.71;82.83;96725.69;4843575;29;20444;-51
2021/11/26 08:51:40;;;;;;;101.50;27.98;;;;;;;0.78;83.02;96722.78;4844075;29;20022;-51
2021/11/26 08:54:05;;;;;;;110.65;27.90;;;;;;;0.71;83.77;96720.53;4843644;29;20394;-53
2021/11/26 08:56:31;;;;;;;110.13;28.10;;;;;;;0.82;83.06;96721.69;4843588;29;20033;-54
2021/11/26 08:58:56;;;;;;;108.93;26.63;;;;;;;0.97;82.76;96723.47;4843856;29;20082;-53
2021/11/26 09:01:22;;;;;;;110.03;29.48;;;;;;;0.79;82.47;96711.53;4843785;29;20117;-55
2021/11/26 09:03:47;;;;;;;112.03;28.35;;;;;;;1.03;81.47;96712.81;4843520;29;20502;-48
2021/11/26 09:06:17;;;;;;;98.88;26.50;;;;;;;1.05;82.01;96713.56;4843433;29;20026;-50
2021/11/26 09:08:42;;;;;;;111.05;27.40;;;;;;;1.09;81.04;96712.47;4843657;29;20030;-53
2021/11/26 09:11:07;;;;;;;121.43;30.55;;;;;;;0.92;81.97;96707.38;4843541;29;20037;-54
2021/11/26 09:13:33;;;;;;;108.68;28.50;;;;;;;0.81;82.87;96707.13;4843479;29;20022;-53
2021/11/26 09:15:58;;;;;;;116.63;30.00;;;;;;;1.02;81.97;96703.41;4843558;29;20420;-52
2021/11/26 09:18:24;;;;;;;122.60;30.45;;;;;;;1.08;81.97;96702.25;4843304;29;20034;-51
2021/11/26 09:20:50;;;;;;;123.78;29.05;;;;;;;1.10;82.30;96696.09;4843528;29;20550;-55
2021/11/26 09:23:16;;;;;;;117.72;30.33;;;;;;;1.00;82.74;96697.50;4843319;29;20048;-48
2021/11/26 09:25:41;;;;;;;124.20;30.25;;;;;;;1.06;82.38;96697.16;4843351;29;20405;-53
2021/11/26 09:28:07;;;;;;;110.80;29.05;;;;;;;1.14;81.50;96702.75;4843136;29;20371;-55
2021/11/26 09:30:32;;;;;;;124.10;30.58;;;;;;;1.19;81.36;96694.72;4843345;29;20034;-55
2021/11/26 09:32:58;;;;;;;114.03;28.80;;;;;;;1.11;82.08;96696.91;4842487;29;20022;-50
2021/11/26 09:35:25;;;;;;;128.68;32.97;;;;;;;1.08;81.64;96690.16;4843271;29;20030;-53
2021/11/26 09:37:51;;;;;;;120.65;26.63;;;;;;;1.34;81.19;96691.31;4842532;29;20022;-54
2021/11/26 09:40:16;;;;;;;122.80;29.48;;;;;;;1.19;81.48;96682.66;4843366;29;20041;-54
2021/11/26 09:42:42;;;;;;;118.80;30.42;;;;;;;1.25;81.71;96685.81;4841837;29;20069;-54
2021/11/26 09:45:11;;;;;;;131.35;31.92;;;;;;;1.19;81.71;96685.22;4842755;29;20099;-55
2021/11/26 09:47:36;;;;;;;118.20;30.27;;;;;;;1.41;80.80;96684.88;4842507;29;20033;-53
2021/11/26 09:50:01;;;;;;;121.25;28.88;;;;;;;1.23;81.84;96679.91;4843144;29;20030;-50
2021/11/26 09:52:27;;;;;;;125.15;31.83;;;;;;;1.25;81.35;96672.91;4842946;29;20034;-48
2021/11/26 09:54:52;;;;;;;129.10;30.33;;;;;;;1.39;80.39;96670.38;4842755;29;20479;-52
2021/11/26 09:57:18;;;;;;;117.22;29.42;;;;;;;1.38;80.38;96658.41;4842700;29;20029;-50
2021/11/26 09:59:45;;;;;;;135.77;31.20;;;;;;;1.61;79.60;96655.31;4842707;29;20089;-52
2021/11/26 10:02:21;;;;;;;133.45;32.13;;;;;;;1.49;80.49;96648.28;4842785;29;20017;-53
2021/11/26 10:04:56;;;;;;;127.43;29.50;;;;;;;1.59;79.31;96649.41;4842460;29;20124;-52
2021/11/26 10:07:22;;;;;;;134.88;33.67;;;;;;;1.61;80.06;96639.81;4841706;29;20052;-51
2021/11/26 10:09:47;;;;;;;120.18;31.85;;;;;;;1.61;78.91;96632.06;4841885;29;20034;-49
2021/11/26 10:12:15;;;;;;;119.20;31.50;;;;;;;1.42;80.34;96624.53;4842515;29;20032;-50
2021/11/26 10:14:42;;;;;;;120.78;31.20;;;;;;;1.41;80.10;96617.72;4842511;29;20037;-49
2021/11/26 10:17:15;;;;;;;117.93;30.00;;;;;;;1.56;79.01;96620.34;4841476;29;20030;-49
2021/11/26 10:19:47;;;;;;;115.53;28.48;;;;;;;1.78;78.71;96601.81;4841863;29;20383;-49
2021/11/26 10:22:25;;;;;;;111.82;30.40;;;;;;;1.74;78.19;96597.75;4842327;29;20025;-51
2021/11/26 10:25:15;;;;;;;121.65;29.38;;;;;;;1.60;78.82;96594.22;4841927;29;20038;-48
2021/11/26 10:27:45;;;;;;;113.43;30.15;;;;;;;1.85;78.80;96601.34;4842524;29;20034;-50
2021/11/26 10:30:27;;;;;;;103.38;26.95;;;;;;;2.16;77.15;96593.53;4840967;29;20060;-49
2021/11/26 10:33:01;;;;;;;111.72;29.48;;;;;;;1.95;77.42;96591.31;4842332;29;20475;-51
2021/11/26 10:35:34;;;;;;;108.57;28.17;;;;;;;1.63;77.93;96586.28;4841983;29;20037;-54
2021/11/26 10:38:03;;;;;;;122.45;29.48;;;;;;;1.54;78.73;96580.81;4842174;29;20120;-53
2021/11/26 10:40:32;;;;;;;104.05;27.83;;;;;;;1.61;78.19;96577.78;4841791;29;20048;-52
2021/11/26 10:42:57;;;;;;;105.82;28.25;;;;;;;1.60;79.42;96565.78;4841872;29;20660;-55
2021/11/26 10:45:31;;;;;;;98.93;26.00;;;;;;;2.11;76.90;96568.78;4841768;29;20045;-53
2021/11/26 10:50:57;;;;;;;89.13;24.15;;;;;;;2.15;76.45;96553.91;4841183;29;20036;-51
2021/11/26 10:58:50;;;;;;;94.38;26.13;;;;;;;2.06;75.98;96547.50;4823768;29;20037;-51
2021/11/26 11:01:16;;;;;;;90.75;25.42;;;;;;;2.17;75.89;96538.28;4823776;29;20034;-50
2021/11/26 11:03:42;;;;;;;100.20;26.00;;;;;;;2.07;76.03;96538.84;4841254;29;20109;-53
2021/11/26 11:06:17;;;;;;;104.25;25.70;;;;;;;2.11;77.30;96536.91;4840421;29;20061;-54
2021/11/26 11:08:42;;;;;;;102.15;28.30;;;;;;;2.29;76.21;96534.94;4841823;29;20029;-53
2021/11/26 11:11:08;;;;;;;98.55;27.55;;;;;;;2.11;76.16;96526.56;4841672;29;20489;-49
2021/11/26 11:13:33;;;;;;;94.00;25.90;;;;;;;2.33;76.13;96518.28;4841067;29;20036;-50
2021/11/26 11:16:07;;;;;;;100.93;25.33;;;;;;;2.22;75.94;96520.72;4841556;29;20499;-51
2021/11/26 11:18:32;;;;;;;93.25;24.77;;;;;;;2.20;75.85;96520.81;4840264;29;20112;-48
2021/11/26 11:20:58;;;;;;;95.78;24.52;;;;;;;2.30;75.74;96515.91;4841532;29;20448;-49
2021/11/26 11:23:23;;;;;;;101.05;27.23;;;;;;;2.18;75.75;96514.91;4839752;29;20081;-51
2021/11/26 11:25:48;;;;;;;85.80;25.63;;;;;;;2.12;76.79;96505.75;4839803;29;20040;-49
2021/11/26 11:28:14;;;;;;;88.80;23.88;;;;;;;2.56;75.28;96493.56;4841036;29;20402;-49
2021/11/26 11:30:40;;;;;;;92.90;23.73;;;;;;;2.52;75.31;96492.94;4841327;29;20034;-50
2021/11/26 11:33:06;;;;;;;98.82;25.63;;;;;;;2.68;74.41;96486.75;4841342;29;20028;-49
2021/11/26 11:35:32;;;;;;;85.63;22.63;;;;;;;2.76;74.25;96485.34;4840983;29;20038;-50
2021/11/26 11:37:59;;;;;;;93.07;25.30;;;;;;;2.65;73.75;96484.38;4841096;29;20038;-50
2021/11/26 11:40:27;;;;;;;79.55;21.95;;;;;;;2.76;73.01;96469.00;4841282;29;20081;-50
2021/11/26 11:42:53;;;;;;;81.80;23.65;;;;;;;2.73;74.09;96453.66;4841266;29;20042;-52
2021/11/26 11:45:21;;;;;;;84.45;24.20;;;;;;;2.28;74.78;96458.25;4840781;29;20033;-53
2021/11/26 11:47:51;;;;;;;77.10;20.50;;;;;;;2.47;74.42;96458.72;4841281;29;20474;-52
2021/11/26 11:50:22;;;;;;;74.93;19.80;;;;;;;2.21;74.82;96451.81;4840914;29;20086;-50
2021/11/26 11:52:58;;;;;;;91.78;22.17;;;;;;;2.37;74.77;96449.91;4836468;29;20091;-51
2021/11/26 11:55:34;;;;;;;87.00;22.13;;;;;;;2.56;73.95;96444.38;4822246;29;20058;-53
2021/11/26 11:58:20;;;;;;;76.07;20.80;;;;;;;2.66;73.86;96442.03;4823009;29;20503;-50
2021/11/26 12:00:47;;;;;;;74.43;20.52;;;;;;;2.68;73.66;96441.00;4833010;29;20487;-52
2021/11/26 12:03:17;;;;;;;72.93;20.23;;;;;;;2.56;72.87;96432.28;4822358;29;20034;-49
2021/11/26 12:06:00;;;;;;;72.28;21.17;;;;;;;2.42;73.63;96434.94;4821438;29;20120;-52
2021/11/26 12:08:25;;;;;;;73.25;20.73;;;;;;;2.65;73.90;96430.00;4807385;29;20042;-50
2021/11/26 12:10:52;;;;;;;75.95;20.80;;;;;;;2.66;73.89;96426.50;4833556;29;20029;-51
2021/11/26 12:13:20;;;;;;;66.60;18.65;;;;;;;2.40;73.28;96416.06;4839489;29;20474;-51
2021/11/26 12:15:45;;;;;;;67.45;19.48;;;;;;;2.65;73.69;96424.84;4840836;29;20033;-53
2021/11/26 12:18:11;;;;;;;72.13;18.65;;;;;;;2.51;73.55;96415.38;4839718;29;20033;-53
2021/11/26 12:20:39;;;;;;;72.05;20.55;;;;;;;2.58;73.99;96398.50;4840692;29;20030;-51
2021/11/26 12:23:13;;;;;;;72.63;22.20;;;;;;;2.50;73.50;96414.53;4839565;29;20022;-50
2021/11/26 12:25:58;;;;;;;64.68;17.42;;;;;;;2.77;73.41;96411.91;4839626;29;20034;-51
2021/11/26 12:28:26;;;;;;;71.25;20.48;;;;;;;2.46;73.85;96405.34;4840753;29;20030;-51
2021/11/26 12:30:59;;;;;;;67.05;19.60;;;;;;;2.74;72.96;96398.34;4840236;29;20471;-52
2021/11/26 12:33:25;;;;;;;68.88;19.20;;;;;;;2.77;72.45;96396.38;4840544;29;20073;-52
2021/11/26 12:36:00;;;;;;;70.40;20.40;;;;;;;2.51;73.41;96398.13;4824468;29;20490;-54
2021/11/26 12:38:42;;;;;;;74.97;21.05;;;;;;;2.55;74.11;96384.03;4840923;29;20030;-52
2021/11/26 12:41:09;;;;;;;73.03;20.08;;;;;;;2.77;73.77;96377.44;4840496;29;20495;-54
2021/11/26 12:43:48;;;;;;;68.90;20.58;;;;;;;2.82;72.69;96375.34;4839233;29;20629;-50
2021/11/26 12:46:31;;;;;;;70.15;20.70;;;;;;;2.94;71.67;96373.72;4840636;29;20072;-52
2021/11/26 12:52:09;;;;;;;74.45;20.15;;;;;;;2.39;72.83;96357.50;4839451;29;20045;-51
2021/11/26 12:54:42;;;;;;;81.30;20.73;;;;;;;2.34;73.60;96338.84;4840297;29;20108;-52
2021/11/26 12:57:18;;;;;;;71.80;21.88;;;;;;;2.46;73.48;96343.22;4839685;29;20068;-54
2021/11/26 12:59:46;;;;;;;82.00;20.30;;;;;;;2.55;72.40;96345.22;4840617;29;20034;-51
2021/11/26 13:02:25;;;;;;;79.25;22.73;;;;;;;2.51;72.96;96333.41;4838962;29;20030;-53
2021/11/26 13:04:55;;;;;;;74.72;20.80;;;;;;;2.54;72.79;96329.78;4840318;29;20117;-52
2021/11/26 13:07:25;;;;;;;70.47;21.60;;;;;;;2.40;73.05;96333.28;4840871;29;20113;-51
2021/11/26 13:09:57;;;;;;;84.40;21.50;;;;;;;2.54;73.31;96329.78;4843901;29;20029;-54
2021/11/26 13:12:31;;;;;;;84.90;20.55;;;;;;;2.51;73.53;96323.06;4843522;29;20018;-51
2021/11/26 13:14:58;;;;;;;82.45;21.67;;;;;;;2.47;73.11;96324.16;4843197;29;20033;-51
2021/11/26 13:17:52;;;;;;;83.40;21.27;;;;;;;2.43;73.15;96317.53;4843669;29;20026;-52
2021/11/26 13:20:21;;;;;;;83.90;20.73;;;;;;;2.28;73.28;96310.81;4843540;29;20497;-52
2021/11/26 13:23:00;;;;;;;78.28;21.70;;;;;;;2.24;73.57;96314.53;4841958;29;20037;-51
2021/11/26 13:25:27;;;;;;;73.13;20.90;;;;;;;2.31;74.05;96301.09;4843276;29;20034;-52
2021/11/26 13:28:03;;;;;;;96.28;22.95;;;;;;;2.29;74.29;96307.28;4843548;29;20026;-49
2021/11/26 13:30:37;;;;;;;79.85;20.33;;;;;;;2.53;73.26;96297.88;4843646;29;20037;-52
2021/11/26 13:33:25;;;;;;;80.28;21.63;;;;;;;2.19;74.70;96299.28;4826481;29;20030;-54
2021/11/26 13:35:53;;;;;;;78.85;20.92;;;;;;;2.16;75.04;96289.13;4843277;29;20034;-52
2021/11/26 13:38:22;;;;;;;73.97;20.83;;;;;;;2.32;74.47;96294.16;4841787;29;20465;-53
2021/11/26 13:40:49;;;;;;;88.80;24.67;;;;;;;2.46;73.79;96295.81;4842912;29;20030;-49
2021/11/26 13:43:28;;;;;;;86.18;22.70;;;;;;;2.37;73.95;96292.94;4842673;29;20124;-53
2021/11/26 13:46:20;;;;;;;76.47;21.20;;;;;;;2.33;73.83;96286.28;4843294;29;20035;-53
2021/11/26 13:48:46;;;;;;;67.93;18.63;;;;;;;2.54;72.06;96278.84;4839634;29;20037;-49
2021/11/26 13:51:13;;;;;;;70.43;18.23;;;;;;;2.28;72.59;96274.59;4841835;29;20034;-53
2021/11/26 13:53:42;;;;;;;73.60;20.92;;;;;;;2.43;72.54;96265.78;4842741;29;20270;-53
2021/11/26 13:56:08;;;;;;;65.45;19.17;;;;;;;2.46;72.57;96275.13;4841754;29;20490;-54
2021/11/26 13:58:33;;;;;;;78.53;19.73;;;;;;;2.58;72.58;96267.38;4841938;29;20078;-54
2021/11/26 14:00:58;;;;;;;66.10;19.15;;;;;;;2.59;72.04;96268.19;4842936;29;20653;-50
2021/11/26 14:03:37;;;;;;;74.55;18.13;;;;;;;2.54;71.70;96252.94;4842619;29;20054;-55
2021/11/26 14:06:16;;;;;;;65.32;17.67;;;;;;;2.74;71.23;96255.97;4842385;29;20033;-54
2021/11/26 14:08:50;;;;;;;67.07;18.50;;;;;;;2.77;71.26;96253.16;4841704;29;20025;-54
2021/11/26 14:11:29;;;;;;;53.03;16.77;;;;;;;2.93;70.81;96258.13;4841755;29;20078;-52
2021/11/26 14:13:55;;;;;;;66.53;17.80;;;;;;;3.19;70.29;96259.72;4842440;29;20033;-53
2021/11/26 14:16:22;;;;;;;65.35;19.00;;;;;;;3.04;71.14;96255.63;4842139;29;20025;-54
2021/11/26 14:18:57;;;;;;;74.05;20.90;;;;;;;3.03;71.97;96249.63;4842158;29;20037;-55
2021/11/26 14:21:23;;;;;;;66.53;18.58;;;;;;;3.30;71.19;96257.22;4826335;29;20159;-52
2021/11/26 14:23:59;;;;;;;66.70;19.92;;;;;;;3.07;71.61;96256.25;4842213;29;20125;-53
2021/11/26 14:26:25;;;;;;;71.88;19.52;;;;;;;3.09;72.19;96259.53;4842008;29;20038;-55
2021/11/26 14:29:08;;;;;;;69.80;19.60;;;;;;;3.18;72.30;96257.25;4842365;29;20078;-56
2021/11/26 14:31:33;;;;;;;83.80;21.05;;;;;;;3.17;72.52;96256.44;4842112;29;20086;-51
2021/11/26 14:34:03;;;;;;;87.55;22.67;;;;;;;2.75;72.63;96250.69;4840954;29;20075;-47
2021/11/26 14:36:29;;;;;;;76.20;20.50;;;;;;;2.89;72.46;96249.75;4856128;29;20026;-53
2021/11/26 14:38:54;;;;;;;77.43;20.90;;;;;;;2.70;72.72;96246.75;4841918;29;20455;-51
2021/11/26 14:41:21;;;;;;;79.70;21.83;;;;;;;2.51;73.32;96248.00;4842152;29;20033;-53
2021/11/26 14:43:46;;;;;;;79.82;20.35;;;;;;;2.36;73.83;96249.03;4841947;29;20060;-53
2021/11/26 14:46:13;;;;;;;75.28;20.67;;;;;;;2.08;74.86;96250.84;4842076;29;20026;-52
2021/11/26 14:48:52;;;;;;;74.32;20.35;;;;;;;2.02;75.34;96251.25;4840477;29;20047;-50
2021/11/26 14:51:28;;;;;;;81.55;21.60;;;;;;;1.88;76.05;96248.75;4840862;29;20448;-53
2021/11/26 14:54:04;;;;;;;70.50;19.75;;;;;;;1.76;76.44;96229.69;4840866;29;20025;-52
2021/11/26 14:56:29;;;;;;;72.07;19.63;;;;;;;1.77;76.40;96230.50;4841945;29;20034;-54
2021/11/26 14:58:55;;;;;;;70.25;19.48;;;;;;;1.68;76.92;96229.34;4841042;29;20100;-54
2021/11/26 15:01:25;;;;;;;75.78;19.15;;;;;;;1.64;76.95;96225.31;4841888;29;20740;-52
2021/11/26 15:03:50;;;;;;;86.55;23.98;;;;;;;1.27;78.28;96232.78;4840259;29;20034;-54
2021/11/26 15:06:15;;;;;;;74.93;21.08;;;;;;;1.39;78.07;96236.38;4841651;29;20037;-55
2021/11/26 15:08:41;;;;;;;81.15;19.77;;;;;;;1.22;78.99;96239.19;4841187;29;20030;-54
2021/11/26 15:11:07;;;;;;;81.20;22.10;;;;;;;1.14;79.42;96227.59;4841612;29;20029;-52
2021/11/26 15:13:32;;;;;;;79.03;21.85;;;;;;;1.24;79.10;96230.44;4841628;29;20029;-51
2021/11/26 15:15:58;;;;;;;81.85;21.90;;;;;;;1.20;79.48;96226.34;4841425;29;20030;-53
2021/11/26 15:18:23;;;;;;;74.68;20.67;;;;;;;1.43;78.61;96224.91;4841506;29;20048;-52
2021/11/26 15:20:48;;;;;;;84.47;21.15;;;;;;;1.27;79.28;96226.81;4841319;29;20033;-53
2021/11/26 15:23:16;;;;;;;73.40;19.83;;;;;;;1.47;78.67;96221.22;4841251;29;20045;-51
2021/11/26 15:25:42;;;;;;;68.50;19.27;;;;;;;1.45;78.54;96217.91;4841397;29;20029;-53
2021/11/26 15:28:07;;;;;;;71.45;20.55;;;;;;;1.38;78.99;96224.41;4841536;29;20052;-51
2021/11/26 15:30:33;;;;;;;93.15;25.75;;;;;;;1.38;78.97;96211.47;4840507;29;20033;-51
2021/11/26 15:32:58;;;;;;;98.93;24.42;;;;;;;1.30;79.44;96211.13;4841327;29;20568;-52
2021/11/26 15:35:23;;;;;;;77.85;20.73;;;;;;;1.55;78.59;96211.22;4841051;29;20051;-52
2021/11/26 15:37:49;;;;;;;78.63;22.75;;;;;;;1.30;79.34;96203.38;4841497;29;20086;-51
2021/11/26 15:40:14;;;;;;;95.07;25.60;;;;;;;1.36;78.74;96201.22;4840871;29;20038;-51
2021/11/26 15:42:40;;;;;;;93.63;26.27;;;;;;;1.42;78.58;96206.00;4854137;29;20125;-55
2021/11/26 15:45:08;;;;;;;79.70;22.13;;;;;;;1.32;79.09;96204.13;4840744;29;20478;-57
2021/11/26 15:47:34;;;;;;;98.47;26.52;;;;;;;1.35;79.53;96197.00;4840118;29;20096;-52
2021/11/26 15:49:59;;;;;;;131.23;36.45;;;;;;;1.54;78.24;96199.22;4841183;29;20479;-57
2021/11/26 15:52:24;;;;;;;86.43;22.95;;;;;;;1.61;77.90;96199.66;4840539;29;20022;-54
2021/11/26 15:54:50;;;;;;;82.00;21.55;;;;;;;1.56;78.63;96192.22;4841000;29;20081;-51
2021/11/26 15:57:15;;;;;;;79.72;21.77;;;;;;;1.63;78.05;96177.97;4841213;29;20445;-50
2021/11/26 15:59:40;;;;;;;96.43;22.05;;;;;;;1.65;78.20;96190.78;4841418;29;20029;-49
2021/11/26 16:02:07;;;;;;;80.38;21.70;;;;;;;1.70;77.92;96186.16;4839415;29;20041;-51
2021/11/26 16:04:32;;;;;;;70.38;19.45;;;;;;;1.75;77.51;96180.66;4840861;29;20038;-52
2021/11/26 16:06:59;;;;;;;73.05;20.80;;;;;;;1.76;77.66;96184.94;4841260;29;20406;-50
2021/11/26 16:09:24;;;;;;;70.82;19.13;;;;;;;1.68;77.75;96188.00;4841280;29;20057;-51
2021/11/26 16:11:50;;;;;;;81.30;26.20;;;;;;;1.38;78.57;96199.38;4841148;29;20037;-51
2021/11/26 16:14:15;;;;;;;82.50;22.23;;;;;;;1.65;78.04;96186.47;4840722;29;20476;-53
2021/11/26 16:16:41;;;;;;;74.85;21.25;;;;;;;1.56;78.17;96191.38;4841004;29;20026;-52
2021/11/26 16:19:06;;;;;;;80.60;21.13;;;;;;;1.44;78.35;96180.06;4841024;29;20026;-52
2021/11/26 16:21:32;;;;;;;85.07;22.75;;;;;;;1.27;79.44;96181.13;4840906;29;20372;-52
2021/11/26 16:23:57;;;;;;;82.20;22.17;;;;;;;1.35;78.96;96178.09;4840366;29;20211;-49
2021/11/26 16:26:23;;;;;;;72.45;21.02;;;;;;;1.20;79.95;96185.03;4840316;29;20040;-51
2021/11/26 16:28:49;;;;;;;68.88;19.92;;;;;;;1.35;79.05;96178.91;4839716;29;20407;-47
2021/11/26 16:34:10;;;;;;;81.93;20.92;;;;;;;1.42;78.71;96184.53;4840664;29;20456;-49
2021/11/26 16:36:36;;;;;;;71.20;20.33;;;;;;;1.50;78.32;96174.50;4840657;29;20502;-54
2021/11/26 16:39:03;;;;;;;80.95;20.55;;;;;;;1.37;78.69;96164.13;4840718;29;20467;-53
2021/11/26 16:41:29;;;;;;;87.35;26.33;;;;;;;1.30;78.94;96169.78;4841464;29;20104;-53
2021/11/26 16:43:54;;;;;;;82.07;23.50;;;;;;;1.37;78.60;96176.22;4843956;29;20022;-53
2021/11/26 16:46:20;;;;;;;66.35;20.23;;;;;;;1.24;79.25;96167.59;4843812;29;20037;-49
2021/11/26 16:48:45;;;;;;;80.22;21.10;;;;;;;1.37;78.67;96171.88;4844248;29;20045;-53
2021/11/26 16:51:11;;;;;;;73.82;21.83;;;;;;;1.17;79.39;96165.44;4844019;29;20041;-50
2021/11/26 16:53:36;;;;;;;77.00;22.15;;;;;;;1.12;79.95;96177.78;4843543;29;20025;-54
2021/11/26 16:56:01;;;;;;;81.90;22.20;;;;;;;1.23;79.44;96173.69;4844372;29;20030;-53
2021/11/26 16:58:27;;;;;;;70.15;19.95;;;;;;;1.50;78.29;96166.75;4844448;29;20034;-50
2021/11/26 17:00:57;;;;;;;73.63;23.60;;;;;;;1.22;79.23;96169.47;4844200;29;20034;-48
2021/11/26 17:03:22;;;;;;;72.95;24.17;;;;;;;1.02;79.89;96166.38;4843979;29;20110;-50
2021/11/26 17:05:48;;;;;;;77.65;22.08;;;;;;;1.16;79.70;96163.75;4843417;29;20042;-52
2021/11/26 17:08:13;;;;;;;70.78;22.80;;;;;;;1.03;79.65;96157.69;4843814;29;20447;-50
2021/11/26 17:10:38;;;;;;;83.85;23.55;;;;;;;1.06;80.02;96161.84;4843861;29;20030;-50
2021/11/26 17:13:04;;;;;;;76.55;21.95;;;;;;;1.08;79.58;96155.66;4843719;29;20122;-51
2021/11/26 17:15:29;;;;;;;82.20;23.70;;;;;;;1.11;79.97;96157.25;4843250;29;20371;-51
2021/11/26 17:17:54;;;;;;;81.45;23.42;;;;;;;1.24;79.61;96159.84;4843915;29;20630;-51
2021/11/26 17:20:20;;;;;;;81.18;23.30;;;;;;;1.16;79.33;96143.09;4843652;29;20037;-52
2021/11/26 17:22:46;;;;;;;78.68;23.48;;;;;;;1.15;79.73;96146.59;4844122;29;20095;-54
2021/11/26 17:25:11;;;;;;;83.35;22.92;;;;;;;1.21;79.51;96144.56;4859750;29;20037;-49
2021/11/26 17:27:37;;;;;;;72.18;21.30;;;;;;;1.26;78.90;96133.00;4843400;29;20094;-52
2021/11/26 17:30:04;;;;;;;71.53;21.73;;;;;;;1.28;78.92;96133.75;4843607;29;20417;-49
2021/11/26 17:32:29;;;;;;;75.45;21.98;;;;;;;1.29;79.04;96137.16;4843384;29;20026;-50
2021/11/26 17:34:54;;;;;;;82.63;23.00;;;;;;;1.35;78.99;96131.59;4843063;29;20438;-50
2021/11/26 17:37:20;;;;;;;90.40;25.48;;;;;;;1.20;79.61;96128.22;4843057;29;20037;-50
2021/11/26 17:39:45;;;;;;;76.97;24.35;;;;;;;1.19;80.01;96127.41;4842743;29;20030;-52
2021/11/26 17:42:11;;;;;;;83.38;23.77;;;;;;;1.16;79.85;96125.00;4843885;29;20102;-50
2021/11/26 17:44:36;;;;;;;85.53;22.23;;;;;;;1.21;79.46;96121.34;4842736;29;20056;-53
2021/11/26 17:47:02;;;;;;;81.53;25.70;;;;;;;1.16;79.96;96124.19;4843130;29;20120;-52